createdAt,value
2022-10-19T00:09:01.032Z,8.57
2022-10-19T00:19:07.567Z,8.48
2022-10-19T00:29:13.958Z,10.85
2022-10-19T00:39:18.955Z,8.18
2022-10-19T00:49:25.566Z,8.90
2022-10-19T00:59:31.731Z,8.02
2022-10-19T01:09:36.463Z,10.80
2022-10-19T01:20:08.826Z,10.00
2022-10-19T01:30:18.626Z,12.75
2022-10-19T01:40:29.158Z,14.70
2022-10-19T01:50:39.420Z,10.75
2022-10-19T02:00:46.754Z,7.18
2022-10-19T02:10:51.788Z,8.65
2022-10-19T02:20:55.293Z,7.53
2022-10-19T02:31:00.868Z,7.70
2022-10-19T02:41:12.258Z,8.48
2022-10-19T02:51:36.504Z,6.82
2022-10-19T03:01:39.555Z,9.88
2022-10-19T03:11:43.912Z,7.32
2022-10-19T03:21:46.909Z,7.13
2022-10-19T03:31:51.402Z,8.40
2022-10-19T03:41:54.428Z,7.03
2022-10-19T03:51:58.754Z,9.10
2022-10-19T04:02:01.726Z,12.75
2022-10-19T04:12:06.602Z,10.10
2022-10-19T04:22:09.562Z,8.63
2022-10-19T04:32:13.932Z,11.73
2022-10-19T04:42:16.916Z,9.50
2022-10-19T04:52:21.301Z,9.43
2022-10-19T05:02:24.354Z,11.97
2022-10-19T05:12:28.728Z,10.97
2022-10-19T05:22:31.730Z,8.15
2022-10-19T05:32:36.607Z,11.83
2022-10-19T05:42:39.603Z,8.37
2022-10-19T05:52:43.930Z,10.47
2022-10-19T06:02:46.908Z,7.00
2022-10-19T06:12:51.248Z,9.50
2022-10-19T06:22:54.249Z,8.70
2022-10-19T06:32:59.955Z,8.70
2022-10-19T06:43:03.142Z,13.20
2022-10-19T06:53:07.498Z,9.17
2022-10-19T07:03:10.535Z,8.73
2022-10-19T07:13:15.264Z,8.20
2022-10-19T07:23:18.259Z,7.10
2022-10-19T07:33:22.652Z,14.40
2022-10-19T07:43:25.746Z,9.52
2022-10-19T07:53:30.440Z,8.75
2022-10-19T08:13:59.542Z,8.48
2022-10-19T08:24:02.653Z,11.57
2022-10-19T08:34:07.290Z,14.27
2022-10-19T08:44:35.373Z,14.10
2022-10-19T08:54:47.858Z,13.02
2022-10-19T09:04:58.204Z,14.27
2022-10-19T09:15:07.314Z,11.45
2022-10-19T09:25:15.289Z,20.33
2022-10-19T09:35:28.614Z,14.40
2022-10-19T09:45:36.799Z,15.75
2022-10-19T09:55:44.504Z,16.67
2022-10-19T10:05:48.817Z,17.73
2022-10-19T10:15:58.610Z,18.55
2022-10-19T10:26:02.547Z,18.52
2022-10-19T10:36:09.883Z,20.90
2022-10-19T10:46:17.673Z,22.52
2022-10-19T10:56:28.358Z,21.25
2022-10-19T11:06:33.735Z,19.33
2022-10-19T11:16:44.557Z,21.98
2022-10-19T11:27:02.231Z,20.80
2022-10-19T11:37:19.894Z,23.38
2022-10-19T11:47:42.113Z,18.45
2022-10-19T11:57:52.553Z,16.80
2022-10-19T12:08:07.506Z,21.58
2022-10-19T12:18:17.343Z,20.52
2022-10-19T12:28:25.787Z,18.30
2022-10-19T12:38:40.980Z,16.70
2022-10-19T12:48:48.185Z,18.45
2022-10-19T12:58:59.691Z,16.90
2022-10-19T13:09:06.086Z,17.58
2022-10-19T13:19:23.563Z,16.10
2022-10-19T13:29:27.811Z,17.75
2022-10-19T13:39:32.278Z,17.98
2022-10-19T13:50:00.154Z,16.05
2022-10-19T14:00:22.704Z,17.13
2022-10-19T14:10:32.800Z,15.95
2022-10-19T14:20:40.005Z,21.98
2022-10-19T14:30:43.048Z,17.70
2022-10-19T14:40:47.464Z,19.92
2022-10-19T14:50:53.796Z,16.58
2022-10-19T15:00:58.356Z,17.90
2022-10-19T15:11:01.715Z,18.95
2022-10-19T15:21:13.944Z,20.23
2022-10-19T15:31:19.788Z,19.10
2022-10-19T15:41:30.930Z,17.23
2022-10-19T15:51:42.688Z,25.35
2022-10-19T16:01:53.677Z,21.65
2022-10-19T16:11:59.210Z,18.75
2022-10-19T16:22:03.565Z,20.30
2022-10-19T16:32:06.969Z,22.25
2022-10-19T16:42:11.353Z,19.05
2022-10-19T16:52:14.943Z,20.70
2022-10-19T17:02:19.619Z,22.65
2022-10-19T17:12:22.617Z,21.77
2022-10-19T17:22:27.283Z,19.85
2022-10-19T17:32:30.264Z,20.80
2022-10-19T17:42:36.576Z,24.00
2022-10-19T17:52:39.757Z,22.73
2022-10-19T18:02:46.325Z,22.92
2022-10-19T18:12:49.382Z,25.42
2022-10-19T18:22:53.779Z,22.60
2022-10-19T18:32:56.752Z,28.08
2022-10-19T18:43:01.114Z,24.42
2022-10-19T18:53:04.104Z,27.05
2022-10-19T19:03:08.479Z,26.58
2022-10-19T19:13:11.482Z,25.30
2022-10-19T19:23:15.811Z,25.33
2022-10-19T19:33:18.828Z,28.50
2022-10-19T19:43:23.191Z,26.95
2022-10-19T19:53:26.232Z,25.52
2022-10-19T20:03:30.652Z,25.65
2022-10-19T20:13:34.349Z,24.25
2022-10-19T20:23:38.888Z,28.15
2022-10-19T20:33:43.870Z,26.33
2022-10-19T20:43:48.604Z,25.25
2022-10-19T20:53:52.315Z,28.42
2022-10-19T21:04:00.479Z,25.77
2022-10-19T21:14:05.623Z,26.95
2022-10-19T21:24:12.646Z,27.30
2022-10-19T21:34:17.566Z,31.42
2022-10-19T21:44:23.199Z,29.38
2022-10-19T21:54:27.608Z,34.05
2022-10-19T22:04:32.007Z,31.30
2022-10-19T22:14:34.974Z,30.70
2022-10-19T22:24:39.631Z,29.70
2022-10-19T22:34:42.611Z,28.00
2022-10-19T22:44:46.984Z,28.55
2022-10-19T22:54:51.100Z,26.98
2022-10-19T23:04:55.475Z,26.23
2022-10-19T23:14:58.628Z,30.73
2022-10-19T23:25:03.150Z,32.05
2022-10-19T23:35:07.308Z,29.85
2022-10-19T23:45:13.051Z,27.58
2022-10-19T23:55:16.204Z,29.63
